Time;durP1;ratioP1;P1;durP2;ratioP2;P2;SDS_P1;SDS_P2;PMS_P1;PMS_P2;Temp;Humidity;BMP_temperature;BMP_pressure;BME280_temperature;BME280_humidity;BME280_pressure;Samples;Min_cycle;Max_cycle;Signal;HPM_P1;HPM_P2
2022/01/08 00:02:03;;;;;;;66.43;29.80;;;;;;;0.57;54.38;100177.03;4415147;32;31465;-77
2022/01/08 00:04:34;;;;;;;67.07;30.03;;;;;;;0.40;54.50;100176.78;4401547;32;33731;-77
2022/01/08 00:07:07;;;;;;;60.73;30.03;;;;;;;0.53;54.34;100177.44;4404941;32;34522;-77
2022/01/08 00:09:38;;;;;;;56.30;26.77;;;;;;;0.58;54.14;100156.28;4402281;32;32568;-77
2022/01/08 00:12:08;;;;;;;58.67;27.67;;;;;;;0.54;54.34;100163.81;4404772;32;33296;-77
2022/01/08 00:14:36;;;;;;;53.97;28.30;;;;;;;0.49;54.36;100160.66;4403176;32;34050;-78
2022/01/08 00:17:07;;;;;;;64.73;31.57;;;;;;;0.52;54.74;100159.53;4426453;32;34442;-77
2022/01/08 00:19:40;;;;;;;60.10;29.05;;;;;;;0.46;55.01;100162.75;4413766;32;32414;-77
2022/01/08 00:22:11;;;;;;;67.87;30.50;;;;;;;0.66;54.18;100151.03;4414312;32;33241;-77
2022/01/08 00:24:40;;;;;;;58.20;27.77;;;;;;;0.64;54.20;100153.06;4400935;32;32292;-77
2022/01/08 00:27:08;;;;;;;65.87;29.60;;;;;;;0.80;53.91;100158.78;4401163;32;34435;-77
2022/01/08 00:29:40;;;;;;;60.43;29.17;;;;;;;0.75;53.85;100157.47;4413306;32;33719;-77
2022/01/08 00:32:08;;;;;;;61.03;29.80;;;;;;;0.86;53.69;100149.28;4402351;32;34492;-77
2022/01/08 00:34:36;;;;;;;58.50;29.07;;;;;;;0.82;53.99;100151.41;4402433;32;33702;-77
2022/01/08 00:37:07;;;;;;;57.67;26.80;;;;;;;0.76;54.45;100151.09;4404443;32;32816;-77
2022/01/08 00:39:40;;;;;;;79.67;42.70;;;;;;;0.76;54.62;100145.69;4415092;32;34409;-77
2022/01/08 00:42:08;;;;;;;79.23;41.40;;;;;;;0.68;54.58;100138.25;4421231;32;32850;-77
2022/01/08 00:44:35;;;;;;;73.82;35.15;;;;;;;0.63;54.58;100129.75;4409924;32;32245;-78
2022/01/08 00:47:06;;;;;;;62.20;28.93;;;;;;;0.62;54.91;100136.13;4422377;32;33892;-78
2022/01/08 00:49:35;;;;;;;61.77;27.70;;;;;;;0.80;54.19;100131.78;4409705;32;33387;-78
2022/01/08 00:52:05;;;;;;;51.63;24.70;;;;;;;0.95;53.84;100134.97;4410311;32;33991;-77
2022/01/08 00:54:35;;;;;;;57.17;27.30;;;;;;;0.77;54.17;100126.66;4409737;32;33836;-78
2022/01/08 00:57:04;;;;;;;59.07;28.20;;;;;;;0.63;54.37;100113.53;4422801;32;34176;-78
2022/01/08 00:59:32;;;;;;;48.28;25.85;;;;;;;0.67;54.04;100112.25;4422315;32;33751;-77
2022/01/08 01:02:00;;;;;;;54.30;26.48;;;;;;;0.50;54.52;100112.91;4409807;32;33229;-78
2022/01/08 01:04:28;;;;;;;68.50;32.30;;;;;;;0.65;53.98;100119.66;4422355;32;34021;-78
2022/01/08 01:06:56;;;;;;;58.87;28.30;;;;;;;0.70;54.00;100108.41;4409825;32;34665;-78
2022/01/08 01:09:26;;;;;;;43.72;22.13;;;;;;;0.58;54.33;100113.09;4397105;32;32609;-78
2022/01/08 01:11:57;;;;;;;52.97;24.83;;;;;;;0.71;53.94;100099.31;4410075;32;33203;-78
2022/01/08 01:14:27;;;;;;;54.40;25.77;;;;;;;0.51;54.12;100082.19;4409906;32;34592;-78
2022/01/08 01:17:00;;;;;;;42.47;21.97;;;;;;;0.51;54.20;100080.34;4409813;32;34557;-77
2022/01/08 01:19:31;;;;;;;57.93;26.07;;;;;;;0.64;54.16;100083.69;4409577;32;34190;-78
2022/01/08 01:22:04;;;;;;;66.93;31.40;;;;;;;0.52;54.21;100082.06;4409463;32;33448;-77
2022/01/08 01:24:36;;;;;;;64.13;31.43;;;;;;;0.70;53.86;100087.66;4409584;32;33904;-78
2022/01/08 01:30:04;;;;;;;53.60;25.10;;;;;;;0.60;54.02;100081.41;4411438;32;33285;-78
2022/01/08 01:49:10;;;;;;;39.67;19.00;;;;;;;0.71;53.82;100050.69;4411363;32;35313;-78
2022/01/08 01:51:39;;;;;;;38.08;20.05;;;;;;;0.44;54.43;100054.03;4420839;32;34463;-78
2022/01/08 01:54:12;;;;;;;39.80;18.97;;;;;;;0.55;54.16;100052.09;4411206;32;33286;-78
2022/01/08 01:56:43;;;;;;;36.73;18.90;;;;;;;0.39;54.42;100058.97;4423774;32;33799;-78
2022/01/08 01:59:15;;;;;;;36.87;18.47;;;;;;;0.30;54.33;100056.09;4410699;32;34279;-78
2022/01/08 02:01:43;;;;;;;40.77;18.57;;;;;;;0.33;54.03;100050.44;4411308;32;33962;-78
2022/01/08 02:04:13;;;;;;;39.80;18.10;;;;;;;0.17;54.54;100044.66;4411078;32;34158;-78
2022/01/08 02:06:44;;;;;;;35.07;17.33;;;;;;;0.16;54.46;100034.84;4399317;32;34371;-78
2022/01/08 02:09:15;;;;;;;37.63;18.33;;;;;;;0.00;54.85;100045.31;4410757;32;33833;-78
2022/01/08 02:11:56;;;;;;;37.73;17.43;;;;;;;0.06;54.50;100036.66;4410651;32;32551;-77
2022/01/08 02:14:24;;;;;;;34.73;16.70;;;;;;;0.17;54.07;100044.66;4410788;32;31838;-78
2022/01/08 02:16:52;;;;;;;36.10;18.33;;;;;;;-0.09;54.72;100049.66;4410567;32;33978;-78
2022/01/08 02:19:20;;;;;;;33.20;16.07;;;;;;;0.03;54.31;100044.16;4410625;32;34477;-77
2022/01/08 02:21:49;;;;;;;31.90;15.33;;;;;;;0.05;54.16;100042.19;4423275;32;32412;-78
2022/01/08 02:24:20;;;;;;;30.70;15.43;;;;;;;0.03;54.27;100034.22;4410815;32;33603;-77
2022/01/08 02:26:52;;;;;;;30.12;15.18;;;;;;;0.22;53.49;100038.88;4410728;32;32229;-77
2022/01/08 02:29:21;;;;;;;29.00;14.33;;;;;;;-0.04;53.60;100024.97;4410588;32;33125;-77
2022/01/08 02:31:56;;;;;;;30.98;15.15;;;;;;;-0.10;53.58;100034.44;4410890;32;34058;-77
2022/01/08 02:34:27;;;;;;;29.40;15.40;;;;;;;-0.26;53.90;100022.41;4410610;32;31787;-77
2022/01/08 02:36:59;;;;;;;29.10;15.00;;;;;;;-0.08;53.21;100021.69;4410386;32;32390;-77
2022/01/08 02:39:30;;;;;;;29.47;15.43;;;;;;;-0.40;53.90;100023.59;4423614;32;34226;-77
2022/01/08 02:42:01;;;;;;;25.27;13.33;;;;;;;-0.38;53.90;100029.72;4411261;32;33807;-78
2022/01/08 02:44:28;;;;;;;27.87;13.23;;;;;;;-0.31;53.81;100020.13;4410706;32;33314;-77
2022/01/08 02:46:56;;;;;;;28.57;13.23;;;;;;;-0.31;53.87;100027.34;4410644;32;34515;-77
2022/01/08 02:49:24;;;;;;;23.53;12.10;;;;;;;-0.32;53.60;100022.94;4410627;32;34104;-77
2022/01/08 02:51:51;;;;;;;25.20;11.57;;;;;;;-0.45;54.03;100028.53;4410880;32;34333;-77
2022/01/08 02:54:24;;;;;;;21.60;11.57;;;;;;;-0.48;53.79;100026.94;4407919;32;33584;-77
2022/01/08 02:56:54;;;;;;;23.27;10.30;;;;;;;-0.42;53.62;100025.56;4424942;32;32182;-76
2022/01/08 02:59:25;;;;;;;20.27;11.23;;;;;;;-0.65;54.27;100016.75;4425636;32;33812;-77
2022/01/08 03:01:53;;;;;;;20.07;9.50;;;;;;;-0.98;55.23;100022.28;4400827;32;32049;-77
2022/01/08 03:04:23;;;;;;;21.10;10.13;;;;;;;-0.64;54.11;100018.44;4412809;32;33954;-77
2022/01/08 03:06:53;;;;;;;19.57;10.10;;;;;;;-0.56;53.63;100021.34;4426263;32;33229;-77
2022/01/08 03:09:32;;;;;;;21.57;10.03;;;;;;;-0.72;53.92;100015.56;4427255;32;34625;-77
2022/01/08 03:12:05;;;;;;;17.50;9.43;;;;;;;-0.82;54.07;100020.03;4413609;32;32176;-77
2022/01/08 03:14:41;;;;;;;21.17;10.85;;;;;;;-0.74;53.86;100004.06;4414375;32;33257;-77
2022/01/08 03:17:17;;;;;;;19.10;10.13;;;;;;;-0.91;54.36;100012.69;4426713;32;32372;-77
2022/01/08 03:19:52;;;;;;;19.40;9.43;;;;;;;-0.86;54.20;100023.94;4426249;32;35344;-77
2022/01/08 03:22:28;;;;;;;18.73;10.23;;;;;;;-0.97;54.67;100019.47;4413269;32;34240;-77
2022/01/08 03:25:05;;;;;;;18.90;9.17;;;;;;;-1.12;55.06;100028.81;4414618;32;33141;-76
2022/01/08 03:27:36;;;;;;;18.60;9.50;;;;;;;-0.89;54.45;100024.22;4425778;32;33682;-77
2022/01/08 03:30:14;;;;;;;19.10;10.30;;;;;;;-1.02;54.59;100018.97;4425748;32;34348;-78
2022/01/08 03:32:46;;;;;;;18.00;8.77;;;;;;;-1.12;54.63;100035.03;4438257;32;33825;-78
2022/01/08 03:35:22;;;;;;;19.73;8.70;;;;;;;-1.34;55.24;100027.91;4425444;32;32131;-77
2022/01/08 03:37:55;;;;;;;19.63;9.43;;;;;;;-1.10;54.78;100032.22;4425329;32;32229;-77
2022/01/08 03:40:28;;;;;;;16.23;8.83;;;;;;;-0.94;54.57;100037.19;4425791;32;34296;-77
2022/01/08 03:42:56;;;;;;;16.97;9.10;;;;;;;-0.79;54.20;100035.94;4424754;32;32296;-78
2022/01/08 03:45:26;;;;;;;18.57;8.27;;;;;;;-1.11;55.08;100034.06;4412872;32;31744;-77
2022/01/08 03:48:07;;;;;;;21.37;9.80;;;;;;;-0.89;54.31;100030.44;4425502;32;33674;-77
2022/01/08 03:50:38;;;;;;;19.93;8.93;;;;;;;-0.86;53.95;100035.59;4413983;32;32985;-77
2022/01/08 03:53:06;;;;;;;14.87;8.13;;;;;;;-0.85;54.09;100034.59;4425870;32;33841;-77
2022/01/08 03:55:34;;;;;;;16.20;8.90;;;;;;;-0.82;54.13;100044.28;4425567;32;34139;-77
2022/01/08 03:58:03;;;;;;;23.77;10.53;;;;;;;-0.90;54.05;100039.50;4412608;32;33316;-77
2022/01/08 04:00:33;;;;;;;22.33;10.27;;;;;;;-0.94;54.03;100034.50;4425642;32;35325;-78
2022/01/08 04:03:02;;;;;;;18.93;8.70;;;;;;;-0.89;53.76;100035.84;4438353;32;34588;-78
2022/01/08 04:05:32;;;;;;;20.27;9.47;;;;;;;-0.83;53.58;100035.34;4425465;32;33577;-78
2022/01/08 04:08:03;;;;;;;19.70;8.80;;;;;;;-0.91;53.77;100032.41;4438060;32;33853;-78
2022/01/08 04:10:31;;;;;;;19.47;8.80;;;;;;;-0.92;53.90;100024.47;4425416;32;35085;-77
2022/01/08 04:13:09;;;;;;;22.27;10.30;;;;;;;-1.01;53.81;100016.16;4400062;32;32389;-78
2022/01/08 04:15:40;;;;;;;22.23;10.60;;;;;;;-1.08;53.96;100016.78;4426134;32;32021;-77
2022/01/08 04:18:11;;;;;;;21.90;9.93;;;;;;;-1.20;54.49;100017.81;4425733;32;33453;-77
2022/01/08 04:23:41;;;;;;;20.00;9.50;;;;;;;-1.11;54.23;100014.34;4410818;32;32697;-77
2022/01/08 04:26:14;;;;;;;20.50;9.27;;;;;;;-1.12;54.26;100004.56;4425647;32;32984;-77
2022/01/08 04:28:46;;;;;;;23.92;8.85;;;;;;;-1.07;54.24;99999.66;4412854;32;32184;-78
2022/01/08 04:31:16;;;;;;;16.87;8.13;;;;;;;-1.14;54.24;99987.69;4413377;32;34446;-77
2022/01/08 04:33:46;;;;;;;15.60;7.90;;;;;;;-1.19;54.41;99996.13;4424955;32;33383;-77
2022/01/08 04:36:14;;;;;;;17.00;7.97;;;;;;;-1.05;54.44;99993.16;4425212;32;33277;-77
2022/01/08 04:38:45;;;;;;;16.50;7.97;;;;;;;-1.00;54.29;99990.09;4425121;32;32166;-77
2022/01/08 04:41:13;;;;;;;15.77;7.67;;;;;;;-1.19;54.66;99982.66;4425160;32;34412;-78
2022/01/08 04:43:43;;;;;;;16.17;6.87;;;;;;;-1.25;55.19;99974.25;4425186;32;34854;-77
2022/01/08 04:46:12;;;;;;;17.20;8.03;;;;;;;-1.15;55.03;99965.28;4425049;32;31968;-77
2022/01/08 04:48:44;;;;;;;12.87;6.87;;;;;;;-1.05;54.70;99968.91;4412543;32;32306;-78
2022/01/08 04:51:13;;;;;;;14.13;6.40;;;;;;;-1.07;54.26;99960.09;4412453;32;33963;-78
2022/01/08 04:53:42;;;;;;;16.70;6.93;;;;;;;-1.12;54.53;99970.41;4412557;32;33920;-77
2022/01/08 04:56:15;;;;;;;15.20;7.30;;;;;;;-1.32;54.97;99973.94;4413629;32;32488;-77
2022/01/08 04:58:44;;;;;;;16.60;7.70;;;;;;;-1.03;54.30;99964.25;4424915;32;33487;-78
2022/01/08 05:01:17;;;;;;;14.63;7.33;;;;;;;-1.04;54.21;99967.94;4412226;32;32323;-77
2022/01/08 05:03:44;;;;;;;13.97;6.90;;;;;;;-1.05;54.09;99955.44;4412474;32;33924;-78
2022/01/08 05:06:14;;;;;;;14.30;7.20;;;;;;;-1.19;54.69;99953.06;4399629;32;32132;-78
2022/01/08 05:08:50;;;;;;;16.50;7.97;;;;;;;-1.21;54.81;99951.47;4424894;32;34242;-77
2022/01/08 05:11:18;;;;;;;13.60;6.80;;;;;;;-1.21;54.77;99954.16;4412244;32;32940;-77
2022/01/08 05:13:47;;;;;;;13.10;6.57;;;;;;;-1.17;54.71;99958.31;4425214;32;33440;-77
2022/01/08 05:16:15;;;;;;;13.03;7.23;;;;;;;-1.11;54.37;99977.50;4424634;32;31577;-77
2022/01/08 05:18:51;;;;;;;16.93;7.97;;;;;;;-1.14;54.83;99975.06;4424772;32;32147;-78
2022/01/08 05:21:27;;;;;;;17.67;8.55;;;;;;;-1.35;55.83;99971.50;4412067;32;32869;-78
2022/01/08 05:24:14;;;;;;;13.93;7.30;;;;;;;-1.26;55.57;99951.84;4412311;32;32478;-77
2022/01/08 05:26:51;;;;;;;18.60;7.70;;;;;;;-0.95;54.82;99963.63;4423981;32;32800;-77
2022/01/08 05:29:30;;;;;;;19.37;8.53;;;;;;;-1.04;55.08;99970.63;4411861;32;32259;-77
2022/01/08 05:32:03;;;;;;;23.00;9.13;;;;;;;-1.06;55.39;99969.03;4412257;32;33956;-77
2022/01/08 05:34:41;;;;;;;18.70;8.77;;;;;;;-1.03;55.23;99977.72;4413299;32;33937;-78
2022/01/08 05:37:12;;;;;;;20.20;9.63;;;;;;;-0.89;54.76;99976.56;4424989;32;34130;-78
2022/01/08 05:39:40;;;;;;;14.90;7.60;;;;;;;-1.01;54.87;99967.69;4411654;32;33756;-78
2022/01/08 05:42:13;;;;;;;13.93;6.90;;;;;;;-1.05;54.73;99966.22;4424480;32;35283;-78
2022/01/08 05:44:42;;;;;;;14.83;6.97;;;;;;;-1.15;55.17;99973.34;4412427;32;34109;-78
2022/01/08 05:47:14;;;;;;;17.83;7.50;;;;;;;-0.96;54.79;99963.75;4412020;32;31994;-77
2022/01/08 05:49:44;;;;;;;18.73;8.50;;;;;;;-1.00;54.68;99964.00;4437254;32;33800;-77
2022/01/08 05:52:15;;;;;;;15.27;7.40;;;;;;;-1.14;54.75;99967.00;4424555;32;34485;-77
2022/01/08 05:54:43;;;;;;;15.97;7.73;;;;;;;-0.83;54.31;99969.81;4424473;32;33800;-77
2022/01/08 05:57:17;;;;;;;17.87;7.53;;;;;;;-1.03;54.42;99972.34;4424620;32;33387;-77
2022/01/08 05:59:52;;;;;;;16.90;7.37;;;;;;;-0.89;54.26;99976.56;4424133;32;33883;-77
2022/01/08 06:02:36;;;;;;;18.20;8.57;;;;;;;-0.97;54.31;99979.06;4423993;32;33868;-77
2022/01/08 06:05:23;;;;;;;29.23;13.20;;;;;;;-1.02;54.44;99983.97;4411759;32;35804;-77
2022/01/08 06:07:58;;;;;;;24.98;13.60;;;;;;;-0.97;54.39;99983.59;4425002;32;32168;-77
2022/01/08 06:10:34;;;;;;;26.50;13.53;;;;;;;-1.07;54.58;99995.13;4411475;32;34080;-78
2022/01/08 06:13:18;;;;;;;24.90;12.47;;;;;;;-1.21;55.15;99999.94;4437969;32;34534;-76
2022/01/08 06:15:55;;;;;;;26.13;10.77;;;;;;;-1.06;54.58;100004.06;4423692;32;32541;-76
2022/01/08 06:18:27;;;;;;;23.08;11.30;;;;;;;-1.05;54.55;100011.16;4436771;32;33659;-76
2022/01/08 06:21:09;;;;;;;21.93;10.73;;;;;;;-0.96;54.22;100017.63;4425289;32;34514;-76
2022/01/08 06:23:39;;;;;;;28.77;13.50;;;;;;;-1.27;54.59;100014.75;4423864;32;32969;-77
2022/01/08 06:26:12;;;;;;;26.33;10.63;;;;;;;-1.12;54.08;100018.88;4411540;32;34659;-77
2022/01/08 06:28:45;;;;;;;23.73;11.03;;;;;;;-1.47;54.86;100007.47;4436845;32;34152;-77
2022/01/08 06:31:32;;;;;;;25.13;9.57;;;;;;;-1.20;54.13;100015.97;4425339;32;34640;-77
2022/01/08 06:34:08;;;;;;;28.23;11.90;;;;;;;-1.06;53.51;100013.00;4424582;32;34047;-77
2022/01/08 06:36:47;;;;;;;22.83;10.00;;;;;;;-1.20;53.76;100015.97;4424852;32;34254;-77
2022/01/08 06:39:18;;;;;;;22.90;10.53;;;;;;;-1.37;54.08;100011.13;4425343;32;33191;-77
2022/01/08 06:41:48;;;;;;;20.77;9.67;;;;;;;-1.19;53.70;99998.84;4438733;32;34372;-76
2022/01/08 06:44:17;;;;;;;17.60;9.03;;;;;;;-1.35;53.96;100006.47;4422438;32;34287;-77
2022/01/08 06:46:55;;;;;;;25.00;10.03;;;;;;;-1.54;54.41;100000.88;4422435;32;34208;-77
2022/01/08 06:49:28;;;;;;;19.90;9.67;;;;;;;-1.53;54.69;100003.44;4410308;32;32302;-77
2022/01/08 06:52:01;;;;;;;21.93;10.10;;;;;;;-1.58;54.76;100000.28;4410509;32;32286;-77
2022/01/08 06:54:28;;;;;;;23.40;9.90;;;;;;;-1.66;54.95;99997.34;4407824;32;34504;-77
2022/01/08 06:57:04;;;;;;;27.90;9.97;;;;;;;-1.38;54.51;99991.44;4404666;32;33730;-78
2022/01/08 06:59:37;;;;;;;23.13;13.10;;;;;;;-1.40;54.67;99988.03;4410594;32;31762;-77
2022/01/08 07:02:10;;;;;;;32.73;14.97;;;;;;;-1.34;54.63;99992.03;4410460;32;33134;-77
2022/01/08 07:04:41;;;;;;;39.17;18.23;;;;;;;-1.31;54.58;99997.19;4410469;32;34629;-78
2022/01/08 07:07:09;;;;;;;28.77;15.27;;;;;;;-1.33;54.66;100000.00;4409959;32;32587;-77
2022/01/08 07:09:37;;;;;;;24.57;11.70;;;;;;;-1.56;55.29;100003.69;4397915;32;33652;-77
2022/01/08 07:12:08;;;;;;;22.43;11.27;;;;;;;-1.57;55.62;99979.59;4410394;32;33852;-77
2022/01/08 07:14:39;;;;;;;32.90;13.07;;;;;;;-1.31;54.96;99975.63;4398645;32;34920;-78
2022/01/08 07:17:07;;;;;;;36.20;15.00;;;;;;;-1.51;55.09;99984.50;4410392;32;34239;-77
2022/01/08 07:19:36;;;;;;;26.20;11.77;;;;;;;-1.39;54.96;99976.28;4410203;32;31816;-78
2022/01/08 07:22:09;;;;;;;23.30;11.47;;;;;;;-1.27;54.42;99976.22;4397853;32;32059;-77
2022/01/08 07:24:37;;;;;;;21.60;10.30;;;;;;;-1.21;54.51;99970.31;4422923;32;35058;-78
2022/01/08 07:27:07;;;;;;;21.73;10.10;;;;;;;-1.08;54.03;99976.41;4397995;32;33744;-77
2022/01/08 07:29:35;;;;;;;28.90;11.50;;;;;;;-1.01;53.87;99970.37;4410501;32;34253;-77
2022/01/08 07:32:06;;;;;;;27.03;10.30;;;;;;;-1.25;54.69;99967.03;4422605;32;34199;-77
2022/01/08 07:34:34;;;;;;;20.50;9.80;;;;;;;-1.12;54.54;99966.88;4409249;32;33037;-78
2022/01/08 07:37:07;;;;;;;18.30;9.67;;;;;;;-1.40;55.64;99971.88;4410212;32;32356;-78
2022/01/08 07:39:35;;;;;;;23.50;9.50;;;;;;;-1.16;55.25;99974.34;4401282;32;32816;-75
2022/01/08 07:42:02;;;;;;;27.47;11.37;;;;;;;-1.01;54.74;99972.22;4407612;32;33283;-78
2022/01/08 07:44:30;;;;;;;27.13;13.37;;;;;;;-0.74;61.09;99975.28;4407591;32;32754;-77
2022/01/08 07:46:59;;;;;;;28.83;14.17;;;;;;;-0.66;57.83;99982.72;4395235;32;32281;-77
2022/01/08 07:49:27;;;;;;;24.73;11.03;;;;;;;-0.72;56.37;99972.47;4407442;32;33349;-77
2022/01/08 07:51:55;;;;;;;21.40;9.87;;;;;;;-0.57;55.50;99973.81;4382629;32;33390;-77
2022/01/08 07:54:23;;;;;;;22.47;9.33;;;;;;;-0.45;54.76;99953.91;4395247;32;34361;-79
2022/01/08 07:56:54;;;;;;;21.07;9.10;;;;;;;-0.53;54.79;99956.41;4407881;32;34674;-77
2022/01/08 07:59:24;;;;;;;20.00;8.83;;;;;;;-0.77;55.40;99939.66;4408634;32;34144;-76
2022/01/08 08:01:56;;;;;;;13.53;7.40;;;;;;;-0.56;55.13;99945.03;4395316;32;33908;-77
2022/01/08 08:04:26;;;;;;;16.37;7.53;;;;;;;-0.50;55.03;99949.88;4382907;32;32870;-76
2022/01/08 08:06:57;;;;;;;15.80;8.27;;;;;;;-0.46;54.82;99944.09;4395209;32;33007;-76
2022/01/08 08:09:25;;;;;;;22.90;10.53;;;;;;;-0.39;55.04;99950.66;4407390;32;31661;-76
2022/01/08 08:11:58;;;;;;;29.70;14.83;;;;;;;-0.46;55.07;99943.25;4407589;32;34746;-76
2022/01/08 08:14:31;;;;;;;34.73;18.50;;;;;;;-0.38;55.10;99940.75;4395056;32;34905;-76
2022/01/08 08:17:04;;;;;;;36.30;19.70;;;;;;;-0.32;55.16;99934.81;4407616;32;34755;-77
2022/01/08 08:19:35;;;;;;;38.70;19.10;;;;;;;-0.10;54.79;99931.94;4394924;32;33401;-77
2022/01/08 08:22:05;;;;;;;37.73;17.67;;;;;;;-0.12;55.17;99923.13;4407416;32;33884;-77
2022/01/08 08:24:36;;;;;;;30.23;13.83;;;;;;;0.05;54.97;99916.22;4394854;32;34383;-77
2022/01/08 08:27:07;;;;;;;23.33;12.97;;;;;;;0.09;55.00;99919.50;4407072;32;33867;-76
2022/01/08 08:29:40;;;;;;;27.50;11.37;;;;;;;0.15;54.92;99925.22;4395021;32;34306;-79
2022/01/08 08:32:11;;;;;;;23.93;12.13;;;;;;;0.42;54.35;99910.22;4394789;32;32184;-76
2022/01/08 08:34:38;;;;;;;25.33;13.70;;;;;;;0.28;55.08;99916.87;4394741;32;33091;-77
2022/01/08 08:37:11;;;;;;;29.57;15.83;;;;;;;0.20;55.54;99909.47;4387451;32;32206;-76
2022/01/08 08:39:41;;;;;;;37.13;19.87;;;;;;;0.45;54.96;99905.41;4403789;32;31885;-76
2022/01/08 08:42:11;;;;;;;38.73;22.47;;;;;;;0.59;54.74;99904.16;4409674;32;32029;-76
2022/01/08 08:44:39;;;;;;;41.33;21.77;;;;;;;0.63;54.84;99901.03;4399447;32;32400;-76
2022/01/08 08:47:10;;;;;;;35.93;19.00;;;;;;;0.73;54.87;99898.31;4410091;32;33899;-76
2022/01/08 08:49:38;;;;;;;35.43;18.13;;;;;;;0.59;55.68;99902.31;4395832;32;34165;-76
2022/01/08 08:52:06;;;;;;;42.27;19.37;;;;;;;0.74;55.56;99907.25;4401802;32;34455;-76
2022/01/08 08:54:33;;;;;;;39.60;19.33;;;;;;;0.69;55.61;99904.13;4394428;32;34259;-75
2022/01/08 08:57:01;;;;;;;33.40;18.53;;;;;;;0.80;55.48;99915.66;4409737;32;32266;-75
2022/01/08 08:59:31;;;;;;;26.73;15.50;;;;;;;0.97;55.11;99924.91;4423351;32;33948;-74
2022/01/08 09:01:58;;;;;;;28.67;14.80;;;;;;;0.72;55.45;99914.66;4408960;32;33850;-76
2022/01/08 09:04:29;;;;;;;27.42;14.75;;;;;;;1.07;54.86;99911.41;4409504;32;33068;-75
2022/01/08 09:06:59;;;;;;;31.30;15.40;;;;;;;1.11;54.86;99904.72;4397205;32;34756;-75
2022/01/08 09:09:26;;;;;;;30.73;16.23;;;;;;;1.01;55.27;99895.75;4409575;32;33436;-75
2022/01/08 09:11:56;;;;;;;27.90;15.83;;;;;;;1.09;54.80;99904.84;4409886;32;33633;-76
2022/01/08 09:14:29;;;;;;;31.37;16.20;;;;;;;1.19;54.38;99894.03;4409739;32;34120;-75
2022/01/08 09:17:04;;;;;;;30.15;17.02;;;;;;;1.29;54.13;99893.03;4397857;32;33843;-76
2022/01/08 09:19:34;;;;;;;26.77;14.80;;;;;;;1.16;54.61;99895.19;4423286;32;33241;-75
2022/01/08 09:22:05;;;;;;;30.02;16.30;;;;;;;1.42;54.25;99898.09;4397270;32;33655;-75
2022/01/08 09:24:33;;;;;;;29.45;15.75;;;;;;;1.43;54.45;99891.69;4412370;32;34370;-75
2022/01/08 09:27:03;;;;;;;33.10;16.73;;;;;;;1.31;55.00;99892.84;4409260;32;33939;-75
2022/01/08 09:29:34;;;;;;;29.60;16.70;;;;;;;1.65;54.46;99885.94;4403453;32;200935;-75
2022/01/08 09:32:09;;;;;;;27.67;16.30;;;;;;;1.80;54.42;99883.62;4396694;32;32229;-75
2022/01/08 09:34:41;;;;;;;33.50;16.03;;;;;;;1.84;54.63;99884.19;4397208;32;32880;-76
2022/01/08 09:37:12;;;;;;;33.17;17.35;;;;;;;1.79;54.12;99872.94;4409541;32;33346;-76
2022/01/08 09:39:40;;;;;;;28.87;15.87;;;;;;;1.96;53.97;99862.16;4397671;32;31851;-75
2022/01/08 09:42:09;;;;;;;31.30;15.77;;;;;;;2.04;53.50;99868.69;4396476;32;34244;-76
2022/01/08 09:44:39;;;;;;;22.90;11.90;;;;;;;1.99;53.93;99861.88;4396525;32;33896;-75
2022/01/08 09:47:09;;;;;;;20.93;11.93;;;;;;;2.12;52.23;99866.94;4408994;32;34611;-75
2022/01/08 09:49:38;;;;;;;23.83;11.60;;;;;;;2.24;51.65;99859.47;4396536;32;32789;-75
2022/01/08 09:52:07;;;;;;;23.90;12.65;;;;;;;2.20;51.73;99853.50;4403276;32;32290;-74
2022/01/08 09:54:37;;;;;;;20.67;12.03;;;;;;;2.22;51.69;99845.22;4406866;32;35292;-77
2022/01/08 09:57:08;;;;;;;27.25;12.57;;;;;;;2.57;56.25;99860.66;4396359;32;33981;-77
2022/01/08 09:59:39;;;;;;;22.83;11.00;;;;;;;2.56;52.27;99859.81;4395983;32;32613;-77
2022/01/08 10:02:07;;;;;;;25.30;12.57;;;;;;;2.62;51.53;99863.75;4408265;32;34456;-77
2022/01/08 10:04:36;;;;;;;21.55;11.95;;;;;;;2.68;50.97;99855.00;4408973;32;34623;-77
2022/01/08 10:07:14;;;;;;;22.10;11.75;;;;;;;2.73;50.35;99860.81;4408770;32;34037;-77
2022/01/08 10:10:16;;;;;;;25.35;13.75;;;;;;;2.89;50.68;99846.56;4408992;32;33612;-77
2022/01/08 10:12:55;;;;;;;25.60;13.57;;;;;;;3.14;50.43;99839.47;4410137;32;34699;-77
2022/01/08 10:18:27;;;;;;;21.55;11.52;;;;;;;3.24;49.76;99837.53;4400015;32;32414;-76
2022/01/08 10:20:56;;;;;;;20.55;10.63;;;;;;;2.80;49.86;99831.22;4423245;32;33997;-77
2022/01/08 10:23:25;;;;;;;28.12;17.25;;;;;;;3.02;49.01;99819.91;4411087;32;34532;-77
2022/01/08 10:26:04;;;;;;;20.12;10.30;;;;;;;2.61;49.98;99821.41;4410857;32;34364;-77
2022/01/08 10:28:52;;;;;;;26.87;12.98;;;;;;;2.62;49.63;99828.53;4410298;32;32746;-77
2022/01/08 10:31:28;;;;;;;20.83;12.23;;;;;;;2.73;49.65;99820.16;4423405;32;33574;-77
2022/01/08 10:34:09;;;;;;;;;;;;;;;2.85;48.75;99821.62;4410756;32;33058;-77
2022/01/08 10:36:39;;;;;;;34.95;15.23;;;;;;;2.84;48.45;99828.06;4410401;32;34373;-77
2022/01/08 10:39:10;;;;;;;26.08;13.68;;;;;;;3.09;49.28;99828.25;4410727;32;33975;-77
2022/01/08 10:41:43;;;;;;;25.52;14.27;;;;;;;3.23;49.52;99822.28;4410544;32;31931;-77
2022/01/08 10:44:15;;;;;;;25.70;13.32;;;;;;;3.33;49.50;99824.84;4408427;32;33244;-77
2022/01/08 10:46:46;;;;;;;25.17;13.82;;;;;;;3.44;49.30;99827.28;4411926;32;35283;-77
2022/01/08 10:49:16;;;;;;;28.73;16.55;;;;;;;3.42;49.80;99824.75;4423342;32;33321;-76
2022/01/08 10:51:43;;;;;;;32.00;17.60;;;;;;;3.46;49.85;99831.56;4410944;32;33583;-76
2022/01/08 10:54:12;;;;;;;27.15;16.50;;;;;;;3.46;49.90;99828.84;4410594;32;34502;-76
2022/01/08 10:56:45;;;;;;;24.60;13.62;;;;;;;3.46;49.77;99820.69;4397738;32;32727;-76
2022/01/08 10:59:20;;;;;;;28.98;14.65;;;;;;;3.60;49.58;99828.25;4410514;32;34101;-76
2022/01/08 11:02:02;;;;;;;27.85;14.45;;;;;;;3.82;48.91;99826.84;4410468;32;32107;-76
2022/01/08 11:04:41;;;;;;;26.12;13.20;;;;;;;3.93;49.04;99829.25;4410466;32;34589;-76
2022/01/08 11:07:12;;;;;;;34.58;16.87;;;;;;;4.11;48.63;99825.56;4410123;32;33100;-77
2022/01/08 11:09:42;;;;;;;31.77;14.60;;;;;;;3.74;49.40;99820.53;4424477;32;34733;-76
2022/01/08 11:12:14;;;;;;;26.92;13.35;;;;;;;3.95;48.94;99813.62;4410452;32;32719;-77
2022/01/08 11:17:25;;;;;;;32.20;16.05;;;;;;;3.95;48.40;99816.34;4401436;32;34422;-76
2022/01/08 11:19:56;;;;;;;23.33;13.02;;;;;;;3.86;48.42;99813.78;4410112;32;32473;-76
2022/01/08 11:22:25;;;;;;;22.40;11.30;;;;;;;3.79;48.66;99810.03;4423129;32;33340;-76
2022/01/08 11:25:00;;;;;;;26.87;13.18;;;;;;;3.36;47.43;99813.69;4409815;32;34619;-76
2022/01/08 11:28:00;;;;;;;29.42;13.75;;;;;;;3.25;47.58;99810.22;4424345;32;34217;-76
2022/01/08 11:30:31;;;;;;;24.92;12.40;;;;;;;3.46;47.87;99814.41;4424098;32;34498;-76
2022/01/08 11:33:04;;;;;;;18.73;10.95;;;;;;;3.49;47.23;99812.25;4410219;32;33673;-76
2022/01/08 11:35:40;;;;;;;24.52;12.13;;;;;;;3.80;47.38;99811.72;4411552;32;33174;-76
2022/01/08 11:38:11;;;;;;;21.35;11.40;;;;;;;3.71;47.05;99807.28;4410408;32;35135;-76
2022/01/08 11:40:41;;;;;;;21.58;11.73;;;;;;;3.70;47.57;99805.56;4410421;32;34671;-76
2022/01/08 11:43:14;;;;;;;16.83;9.63;;;;;;;3.70;47.15;99805.56;4410251;32;33208;-76
2022/01/08 11:45:55;;;;;;;17.70;9.38;;;;;;;3.74;46.09;99806.94;4410432;32;33749;-76
2022/01/08 11:48:34;;;;;;;19.58;9.75;;;;;;;3.85;46.08;99812.94;4397309;32;34412;-76
2022/01/08 11:51:03;;;;;;;19.85;9.68;;;;;;;3.59;46.57;99810.25;4404862;32;34667;-76
2022/01/08 11:53:51;;;;;;;19.20;11.02;;;;;;;3.32;45.66;99807.72;4423480;32;33722;-76
2022/01/08 11:56:23;;;;;;;21.08;11.60;;;;;;;3.69;45.63;99795.72;4410746;32;33672;-76
2022/01/08 11:59:09;;;;;;;20.33;9.83;;;;;;;4.00;46.28;99805.00;4422872;32;35103;-76
2022/01/08 12:01:39;;;;;;;25.20;11.90;;;;;;;3.89;45.10;99800.75;4408874;32;32450;-76
2022/01/08 12:04:24;;;;;;;21.40;12.18;;;;;;;4.00;45.78;99794.13;4423454;32;34077;-76
2022/01/08 12:06:57;;;;;;;24.48;12.60;;;;;;;4.25;45.74;99784.22;4410937;32;32155;-76
2022/01/08 12:09:31;;;;;;;22.65;11.65;;;;;;;4.32;45.63;99776.25;4388016;32;33989;-76